メインページ
METAR-TAF:

METAR-TAF

空港 :

Al Udeid, カタール

緯度: 25-07N, 経度: 051-18E, 海抜: 42m

現時点の気象観測

当レポートは1時間13分前の16:56(UTC)に作成
東/南東の風 7kt
気温 26°C
湿度 42%
気圧 1016 hPa
視程: 9000m
高度15000ftの雲は散在している
煙霧

METAR: OTBH 171656Z 11007KT 9000 HZ SCT150 26/12 A3001 RMK AO2A SLP160 WND DATA ESTMD ALSTG/SLP ESTMD $

時間: 21:09 (18:09 UTC)

予報

当レポートは2時間9分前の16:00(UTC)に作成
予報は17日の 16時(UTC)から 18日の 22時(UTC)まで有効
東/南東の風 9kt
視程: 9000m
高度10000ftの雲はほとんどない
煙霧
18日の 02時(UTC)から 18日の 03時(UTC)まで徐々に
の風 6kt
視程: 8000m
高度10000ftの雲は散在している
高度15000ftの千切れ雲あり
18日の 07時(UTC)から 18日の 08時(UTC)まで徐々に
の風 10kt、最大15ktの突風を伴う
視程: 9000m
高度12000ftの千切れ雲あり
煙霧

TAF: OTBH 171600Z 1716/1822 11009KT 9000 HZ FEW100 QNH2997INS BECMG 1802/1803 17006KT 8000 BR SCT100 BKN150 QNH3001INS BECMG 1807/1808 18010G15KT 9000 HZ BKN120 QNH2996INS TX30/1811Z TN23/1800Z

4,000以上の空港の気象観測と天気予報(METAR報とTAF報)

利用可能な観測所は地図上に黄色い丸と赤い丸で示す。

丸の上にカーソルを重ねると観測所名を参照できる。

次にクリックすると気象観測と天気予報を参照できる。

マップの切り替え:黒色「×」印の緑ボタンをクリックして拡大、「-」印の緑ボタンをクリックして縮小、緑色の三角印をクリックして隣りの地図に切り替え


METAR-TAF: